createdAt,value
2024-04-19T00:09:57.525Z,4.1
2024-04-19T00:19:57.493Z,4.1
2024-04-19T00:29:57.470Z,4.1
2024-04-19T00:39:57.446Z,4.1
2024-04-19T00:49:57.418Z,4.1
2024-04-19T00:59:57.390Z,4.05
2024-04-19T01:09:57.349Z,4.05
2024-04-19T01:19:57.325Z,4.05
2024-04-19T01:29:57.300Z,4.05
2024-04-19T01:39:57.355Z,4.05
2024-04-19T01:49:57.256Z,4.05
2024-04-19T01:59:57.230Z,4.05
2024-04-19T02:09:57.191Z,4.05
2024-04-19T02:19:57.162Z,4.05
2024-04-19T02:29:57.141Z,4
2024-04-19T02:39:57.093Z,4
2024-04-19T02:49:57.080Z,4
2024-04-19T02:59:57.059Z,4
2024-04-19T03:09:57.024Z,4
2024-04-19T03:19:56.994Z,4
2024-04-19T03:29:56.985Z,4
2024-04-19T03:39:56.930Z,4
2024-04-19T03:49:57.015Z,4
2024-04-19T03:59:56.879Z,4
2024-04-19T04:09:56.850Z,4
2024-04-19T04:19:56.836Z,4
2024-04-19T04:29:56.809Z,4
2024-04-19T04:39:56.796Z,3.95
2024-04-19T04:49:56.768Z,3.95
2024-04-19T04:59:56.731Z,3.95
2024-04-19T05:09:56.709Z,3.95
2024-04-19T05:19:56.690Z,3.95
2024-04-19T05:29:56.669Z,3.95
2024-04-19T05:39:56.755Z,3.95
2024-04-19T05:49:56.590Z,3.95
2024-04-19T05:59:56.612Z,3.95
2024-04-19T06:09:56.633Z,3.95
2024-04-19T06:19:56.520Z,3.95
2024-04-19T06:29:56.740Z,3.95
2024-04-19T06:39:56.475Z,3.95
2024-04-19T06:49:56.426Z,3.95
2024-04-19T06:59:56.469Z,3.95
2024-04-19T07:09:56.390Z,3.95
2024-04-19T07:19:56.721Z,3.95
2024-04-19T07:29:56.650Z,3.9
2024-04-19T07:39:56.443Z,3.9
2024-04-19T07:49:56.283Z,3.9
2024-04-19T07:59:56.603Z,3.9
2024-04-19T08:09:56.568Z,3.9
2024-04-19T08:19:56.172Z,3.9
2024-04-19T08:29:56.298Z,3.9
2024-04-19T08:39:56.131Z,3.85
2024-04-19T08:49:56.110Z,3.85
2024-04-19T08:59:56.174Z,3.85
2024-04-19T09:09:56.070Z,3.85
2024-04-19T09:19:56.025Z,3.85
2024-04-19T09:29:56.104Z,3.85
2024-04-19T09:39:55.986Z,3.8
2024-04-19T09:49:56.020Z,3.8
2024-04-19T09:59:56.030Z,3.8
2024-04-19T10:09:55.919Z,3.8
2024-04-19T10:19:56.051Z,3.8
2024-04-19T10:29:55.835Z,3.8
2024-04-19T10:39:56.059Z,3.8
2024-04-19T10:49:55.863Z,3.75
2024-04-19T10:59:55.868Z,3.75
2024-04-19T11:09:55.699Z,3.75
2024-04-19T11:19:55.692Z,3.8
2024-04-19T11:29:55.861Z,3.75
2024-04-19T11:39:55.658Z,3.75
2024-04-19T11:49:55.639Z,3.75
2024-04-19T11:59:55.608Z,3.75
2024-04-19T12:09:55.561Z,3.75
2024-04-19T12:19:55.652Z,3.75
2024-04-19T12:29:55.472Z,3.75
2024-04-19T12:39:55.507Z,3.75
2024-04-19T12:49:55.437Z,3.75
2024-04-19T12:59:55.417Z,3.75
2024-04-19T13:09:55.376Z,3.75
2024-04-19T13:19:55.350Z,3.75
2024-04-19T13:29:55.306Z,3.75
2024-04-19T13:39:55.287Z,3.75
2024-04-19T13:49:55.258Z,3.75
2024-04-19T13:59:55.232Z,3.75
2024-04-19T14:09:55.221Z,3.75
2024-04-19T14:19:55.186Z,3.75
2024-04-19T14:29:55.222Z,3.75
2024-04-19T14:39:55.119Z,3.75
2024-04-19T14:49:55.103Z,3.75
2024-04-19T14:59:55.061Z,3.75
2024-04-19T15:09:55.017Z,3.75
2024-04-19T15:19:55.023Z,3.75
2024-04-19T15:29:54.987Z,3.75
2024-04-19T15:39:54.980Z,3.75
2024-04-19T15:49:54.960Z,3.75
2024-04-19T15:59:54.892Z,3.75
2024-04-19T16:09:54.878Z,3.8
2024-04-19T16:19:54.865Z,3.8
2024-04-19T16:29:55.060Z,3.8
2024-04-19T16:39:54.784Z,3.8
2024-04-19T16:49:54.923Z,3.8
2024-04-19T16:59:54.762Z,3.85
2024-04-19T17:09:54.694Z,3.85
2024-04-19T17:19:54.697Z,3.85
2024-04-19T17:29:54.769Z,3.85
2024-04-19T17:39:54.614Z,3.85
2024-04-19T17:49:54.580Z,3.9
2024-04-19T17:59:54.611Z,3.9
2024-04-19T18:09:54.566Z,3.9
2024-04-19T18:19:54.538Z,3.9
2024-04-19T18:29:54.472Z,3.9
2024-04-19T18:39:54.432Z,3.9
2024-04-19T18:49:54.416Z,3.9
2024-04-19T18:59:54.395Z,3.9
2024-04-19T19:09:54.351Z,3.9
2024-04-19T19:19:54.340Z,3.9
2024-04-19T19:29:54.374Z,3.9
2024-04-19T19:39:54.271Z,3.9
2024-04-19T19:49:54.258Z,3.9
2024-04-19T19:59:54.225Z,3.9
2024-04-19T20:09:54.255Z,3.9
2024-04-19T20:19:54.177Z,3.9
2024-04-19T20:29:54.184Z,3.9
2024-04-19T20:39:54.158Z,3.9
2024-04-19T20:49:54.191Z,3.9
2024-04-19T20:59:54.069Z,3.9
2024-04-19T21:09:54.037Z,3.9
2024-04-19T21:19:54.025Z,3.9
2024-04-19T21:29:54.236Z,3.85
2024-04-19T21:39:53.946Z,3.85
2024-04-19T21:49:53.926Z,3.85
2024-04-19T21:59:53.891Z,3.85
2024-04-19T22:09:53.869Z,3.85
2024-04-19T22:19:53.848Z,3.85
2024-04-19T22:29:53.807Z,3.85
2024-04-19T22:39:53.781Z,3.85
2024-04-19T22:49:53.776Z,3.85
2024-04-19T22:59:53.756Z,3.85
2024-04-19T23:09:53.716Z,3.85
2024-04-19T23:19:53.686Z,3.85
2024-04-19T23:29:53.663Z,3.85
2024-04-19T23:39:53.656Z,3.85
2024-04-19T23:49:53.597Z,3.85
2024-04-19T23:59:53.564Z,3.85
